Time,TemperatureF,DewpointF,PressureIn,WindDirection,WindDirectionDegrees,WindSpeedMPH,WindSpeedGustMPH,Humidity,HourlyPrecipIn,Conditions,Clouds,dailyrainin,SolarRadiationWatts/m^2,SoftwareType,DateUTC
2013-05-05 00:21:00,40.0,24.0,-100.00,East,94,3.0,14.0,53,0.00,,,0.00,0.000000,,2013-05-05 06:21:00,
2013-05-05 00:32:00,40.0,24.0,-100.00,East,94,3.0,14.0,53,0.00,,,0.00,0.000000,,2013-05-05 06:32:00,
2013-05-05 00:42:00,40.0,24.0,-100.00,East,94,3.0,14.0,53,0.00,,,0.00,0.000000,,2013-05-05 06:42:00,
2013-05-05 00:51:00,40.0,24.0,-100.00,East,94,3.0,14.0,53,0.00,,,0.00,0.000000,,2013-05-05 06:51:00,
2013-05-05 00:52:00,39.0,23.0,-100.00,East,98,2.0,15.0,52,0.00,,,0.00,0.000000,,2013-05-05 06:52:00,
2013-05-05 01:11:00,39.0,23.0,-100.00,East,98,2.0,15.0,52,0.00,,,0.00,0.000000,,2013-05-05 07:11:00,
2013-05-05 01:21:00,39.0,23.0,-100.00,East,98,2.0,15.0,52,0.00,,,0.00,0.000000,,2013-05-05 07:21:00,
2013-05-05 01:32:00,39.0,23.0,-100.00,East,98,2.0,15.0,52,0.00,,,0.00,0.000000,,2013-05-05 07:32:00,
2013-05-05 01:42:00,39.0,23.0,-100.00,East,98,2.0,15.0,52,0.00,,,0.00,0.000000,,2013-05-05 07:42:00,
2013-05-05 01:52:00,38.0,23.0,-100.00,East,89,5.0,13.0,54,0.00,,,0.00,0.000000,,2013-05-05 07:52:00,
2013-05-05 02:21:00,38.0,23.0,-100.00,East,89,5.0,13.0,54,0.00,,,0.00,0.000000,,2013-05-05 08:21:00,
2013-05-05 02:31:00,38.0,23.0,-100.00,East,89,5.0,13.0,54,0.00,,,0.00,0.000000,,2013-05-05 08:31:00,
2013-05-05 02:42:00,38.0,23.0,-100.00,East,89,5.0,13.0,54,0.00,,,0.00,0.000000,,2013-05-05 08:42:00,
2013-05-05 02:52:00,36.0,21.0,-100.00,East,87,2.0,11.0,54,0.00,,,0.00,0.000000,,2013-05-05 08:52:00,
2013-05-05 03:21:00,36.0,21.0,-100.00,East,87,2.0,11.0,54,0.00,,,0.00,0.000000,,2013-05-05 09:21:00,
2013-05-05 03:32:00,36.0,21.0,-100.00,East,87,2.0,11.0,54,0.00,,,0.00,0.000000,,2013-05-05 09:32:00,
2013-05-05 03:42:00,36.0,21.0,-100.00,East,87,2.0,11.0,54,0.00,,,0.00,0.000000,,2013-05-05 09:42:00,
2013-05-05 03:52:00,35.0,21.0,-100.00,ENE,73,3.0,11.0,57,0.00,,,0.00,0.000000,,2013-05-05 09:52:00,
2013-05-05 04:12:00,35.0,21.0,-100.00,ENE,73,3.0,11.0,57,0.00,,,0.00,0.000000,,2013-05-05 10:12:00,
2013-05-05 04:22:00,35.0,21.0,-100.00,ENE,73,3.0,11.0,57,0.00,,,0.00,0.000000,,2013-05-05 10:22:00,
2013-05-05 04:32:00,35.0,21.0,-100.00,ENE,73,3.0,11.0,57,0.00,,,0.00,0.000000,,2013-05-05 10:32:00,
2013-05-05 04:42:00,35.0,21.0,-100.00,ENE,73,3.0,11.0,57,0.00,,,0.00,0.000000,,2013-05-05 10:42:00,
2013-05-05 05:21:00,36.0,22.0,-100.00,ENE,78,4.0,11.0,57,0.00,,,0.00,0.000000,,2013-05-05 11:21:00,
2013-05-05 05:32:00,36.0,22.0,-100.00,ENE,78,4.0,11.0,57,0.00,,,0.00,0.000000,,2013-05-05 11:32:00,
2013-05-05 05:42:00,36.0,22.0,-100.00,ENE,78,4.0,11.0,57,0.00,,,0.00,0.000000,,2013-05-05 11:42:00,
2013-05-05 05:51:00,36.0,22.0,-100.00,ENE,78,4.0,11.0,57,0.00,,,0.00,0.000000,,2013-05-05 11:51:00,
2013-05-05 06:11:00,36.0,22.0,-100.00,ENE,72,4.0,15.0,56,0.00,,,0.00,0.000000,,2013-05-05 12:11:00,
2013-05-05 06:21:00,36.0,22.0,-100.00,ENE,72,4.0,15.0,56,0.00,,,0.00,0.000000,,2013-05-05 12:21:00,
2013-05-05 06:32:00,36.0,22.0,-100.00,ENE,72,4.0,15.0,56,0.00,,,0.00,0.000000,,2013-05-05 12:32:00,
2013-05-05 06:42:00,36.0,22.0,-100.00,ENE,72,4.0,15.0,56,0.00,,,0.00,0.000000,,2013-05-05 12:42:00,
2013-05-05 06:51:00,36.0,22.0,-100.00,ENE,72,4.0,15.0,56,0.00,,,0.00,0.000000,,2013-05-05 12:51:00,
2013-05-05 06:52:00,36.0,23.0,-100.00,ENE,69,4.0,8.0,59,0.00,,,0.00,7.000000,,2013-05-05 12:52:00,
2013-05-05 07:11:00,36.0,23.0,-100.00,ENE,69,4.0,8.0,59,0.00,,,0.00,7.000000,,2013-05-05 13:11:00,
2013-05-05 07:21:00,36.0,23.0,-100.00,ENE,69,4.0,8.0,59,0.00,,,0.00,7.000000,,2013-05-05 13:21:00,
2013-05-05 07:32:00,36.0,23.0,-100.00,ENE,69,4.0,8.0,59,0.00,,,0.00,7.000000,,2013-05-05 13:32:00,
2013-05-05 07:42:00,36.0,23.0,-100.00,ENE,69,4.0,8.0,59,0.00,,,0.00,7.000000,,2013-05-05 13:42:00,
2013-05-05 08:11:00,43.0,23.0,-100.00,East,83,5.0,12.0,45,0.00,,,0.00,107.000000,,2013-05-05 14:11:00,
2013-05-05 08:21:00,43.0,23.0,-100.00,East,83,5.0,12.0,45,0.00,,,0.00,107.000000,,2013-05-05 14:21:00,
2013-05-05 08:41:00,43.0,23.0,-100.00,East,83,5.0,12.0,45,0.00,,,0.00,107.000000,,2013-05-05 14:41:00,
2013-05-05 08:51:00,43.0,23.0,-100.00,East,83,5.0,12.0,45,0.00,,,0.00,107.000000,,2013-05-05 14:51:00,
2013-05-05 09:11:00,47.0,23.0,-100.00,East,92,6.0,13.0,39,0.00,,,0.00,224.000000,,2013-05-05 15:11:00,
2013-05-05 09:21:00,47.0,23.0,-100.00,East,92,6.0,13.0,39,0.00,,,0.00,224.000000,,2013-05-05 15:21:00,
2013-05-05 09:52:00,51.0,23.0,-100.00,East,79,6.0,16.0,33,0.00,,,0.00,533.000000,,2013-05-05 15:52:00,
2013-05-05 10:12:00,51.0,23.0,-100.00,East,79,6.0,16.0,33,0.00,,,0.00,533.000000,,2013-05-05 16:12:00,
2013-05-05 10:42:00,51.0,23.0,-100.00,East,79,6.0,16.0,33,0.00,,,0.00,533.000000,,2013-05-05 16:42:00,
2013-05-05 11:12:00,57.0,26.0,-100.00,East,81,6.0,16.0,30,-99.99,,,0.00,704.000000,,2013-05-05 17:12:00,
2013-05-05 11:23:00,57.0,26.0,-100.00,East,81,6.0,16.0,30,-99.99,,,0.00,704.000000,,2013-05-05 17:23:00,
2013-05-05 12:11:00,60.0,25.0,-100.00,ENE,72,5.0,15.0,26,-99.99,,,-99.99,821.000000,,2013-05-05 18:11:00,
2013-05-05 12:21:00,60.0,25.0,-100.00,ENE,72,5.0,15.0,26,-99.99,,,-99.99,821.000000,,2013-05-05 18:21:00,
2013-05-05 12:52:00,58.0,26.0,-100.00,SE,139,7.0,17.0,29,-99.99,,,0.00,872.000000,,2013-05-05 18:52:00,
2013-05-05 13:11:00,58.0,26.0,-100.00,SE,139,7.0,17.0,29,-99.99,,,0.00,872.000000,,2013-05-05 19:11:00,
2013-05-05 13:21:00,58.0,26.0,-100.00,SE,139,7.0,17.0,29,-99.99,,,0.00,872.000000,,2013-05-05 19:21:00,
2013-05-05 13:41:00,58.0,26.0,-100.00,SE,139,7.0,17.0,29,-99.99,,,0.00,872.000000,,2013-05-05 19:41:00,
2013-05-05 13:52:00,57.0,23.0,-100.00,SSE,162,7.0,14.0,27,0.00,,,0.00,868.000000,,2013-05-05 19:52:00,
2013-05-05 14:21:00,57.0,23.0,-100.00,SSE,162,7.0,14.0,27,0.00,,,0.00,868.000000,,2013-05-05 20:21:00,
2013-05-05 14:31:00,57.0,23.0,-100.00,SSE,162,7.0,14.0,27,0.00,,,0.00,868.000000,,2013-05-05 20:31:00,
2013-05-05 14:41:00,57.0,23.0,-100.00,SSE,162,7.0,14.0,27,0.00,,,0.00,868.000000,,2013-05-05 20:41:00,
2013-05-05 14:52:00,55.0,24.0,-100.00,East,101,2.0,14.0,30,0.00,,,0.00,351.000000,,2013-05-05 20:52:00,
2013-05-05 15:11:00,55.0,24.0,-100.00,East,101,2.0,14.0,30,0.00,,,0.00,351.000000,,2013-05-05 21:11:00,
2013-05-05 15:21:00,55.0,24.0,-100.00,East,101,2.0,14.0,30,0.00,,,0.00,351.000000,,2013-05-05 21:21:00,
2013-05-05 15:32:00,55.0,24.0,-100.00,East,101,2.0,14.0,30,0.00,,,0.00,351.000000,,2013-05-05 21:32:00,
2013-05-05 15:42:00,55.0,24.0,-100.00,East,101,2.0,14.0,30,0.00,,,0.00,351.000000,,2013-05-05 21:42:00,
2013-05-05 15:52:00,51.0,24.0,-100.00,ESE,110,6.0,15.0,35,0.00,,,0.00,200.000000,,2013-05-05 21:52:00,
2013-05-05 16:12:00,51.0,24.0,-100.00,ESE,110,6.0,15.0,35,0.00,,,0.00,200.000000,,2013-05-05 22:12:00,
2013-05-05 16:22:00,51.0,24.0,-100.00,ESE,110,6.0,15.0,35,0.00,,,0.00,200.000000,,2013-05-05 22:22:00,
2013-05-05 16:33:00,51.0,24.0,-100.00,ESE,110,6.0,15.0,35,0.00,,,0.00,200.000000,,2013-05-05 22:33:00,
2013-05-05 16:42:00,51.0,24.0,-100.00,ESE,110,6.0,15.0,35,0.00,,,0.00,200.000000,,2013-05-05 22:42:00,
2013-05-05 16:52:00,50.0,25.0,-100.00,East,97,1.0,14.0,38,0.00,,,0.00,99.000000,,2013-05-05 22:52:00,
2013-05-05 17:11:00,50.0,25.0,-100.00,East,97,1.0,14.0,38,0.00,,,0.00,99.000000,,2013-05-05 23:11:00,
2013-05-05 17:21:00,50.0,25.0,-100.00,East,97,1.0,14.0,38,0.00,,,0.00,99.000000,,2013-05-05 23:21:00,
2013-05-05 17:32:00,50.0,25.0,-100.00,East,97,1.0,14.0,38,0.00,,,0.00,99.000000,,2013-05-05 23:32:00,
2013-05-05 17:42:00,50.0,25.0,-100.00,East,97,1.0,14.0,38,0.00,,,0.00,99.000000,,2013-05-05 23:42:00,
2013-05-05 18:11:00,49.0,26.0,-100.00,East,97,2.0,11.0,41,0.00,,,0.00,104.000000,,2013-05-06 00:11:00,
2013-05-05 18:21:00,49.0,26.0,-100.00,East,97,2.0,11.0,41,0.00,,,0.00,104.000000,,2013-05-06 00:21:00,
2013-05-05 18:31:00,49.0,26.0,-100.00,East,97,2.0,11.0,41,0.00,,,0.00,104.000000,,2013-05-06 00:31:00,
2013-05-05 18:41:00,49.0,26.0,-100.00,East,97,2.0,11.0,41,0.00,,,0.00,104.000000,,2013-05-06 00:41:00,
2013-05-05 18:51:00,49.0,26.0,-100.00,East,97,2.0,11.0,41,0.00,,,0.00,104.000000,,2013-05-06 00:51:00,
2013-05-05 19:11:00,45.0,28.0,-100.00,ESE,115,2.0,7.0,52,0.00,,,0.00,23.000000,,2013-05-06 01:11:00,
2013-05-05 19:21:00,45.0,28.0,-100.00,ESE,115,2.0,7.0,52,0.00,,,0.00,23.000000,,2013-05-06 01:21:00,
2013-05-05 19:31:00,45.0,28.0,-100.00,ESE,115,2.0,7.0,52,0.00,,,0.00,23.000000,,2013-05-06 01:31:00,
2013-05-05 19:41:00,45.0,28.0,-100.00,ESE,115,2.0,7.0,52,0.00,,,0.00,23.000000,,2013-05-06 01:41:00,
2013-05-05 19:51:00,45.0,28.0,-100.00,ESE,115,2.0,7.0,52,0.00,,,0.00,23.000000,,2013-05-06 01:51:00,
2013-05-05 20:21:00,37.0,37.0,-100.00,NE,53,0.0,12.0,100,0.00,,,0.00,1.000000,,2013-05-06 02:21:00,
2013-05-05 20:32:00,37.0,37.0,-100.00,NE,53,0.0,12.0,100,0.00,,,0.00,1.000000,,2013-05-06 02:32:00,
2013-05-05 20:42:00,37.0,37.0,-100.00,NE,53,0.0,12.0,100,0.00,,,0.00,1.000000,,2013-05-06 02:42:00,
2013-05-05 20:51:00,37.0,37.0,-100.00,NE,53,0.0,12.0,100,0.00,,,0.00,1.000000,,2013-05-06 02:51:00,
2013-05-05 20:52:00,35.0,35.0,-100.00,WSW,247,0.0,4.0,100,0.00,,,0.00,0.000000,,2013-05-06 02:52:00,
2013-05-05 21:22:00,35.0,35.0,-100.00,WSW,247,0.0,4.0,100,0.00,,,0.00,0.000000,,2013-05-06 03:22:00,
2013-05-05 21:33:00,35.0,35.0,-100.00,WSW,247,0.0,4.0,100,0.00,,,0.00,0.000000,,2013-05-06 03:33:00,
2013-05-05 21:42:00,35.0,35.0,-100.00,WSW,247,0.0,4.0,100,0.00,,,0.00,0.000000,,2013-05-06 03:42:00,
2013-05-05 21:52:00,35.0,35.0,-100.00,ENE,74,8.0,13.0,100,0.00,,,0.00,0.000000,,2013-05-06 03:52:00,
2013-05-05 22:23:00,35.0,35.0,-100.00,ENE,74,8.0,13.0,100,0.00,,,0.00,0.000000,,2013-05-06 04:23:00,
2013-05-05 22:32:00,35.0,35.0,-100.00,ENE,74,8.0,13.0,100,0.00,,,0.00,0.000000,,2013-05-06 04:32:00,
2013-05-05 22:42:00,35.0,35.0,-100.00,ENE,74,8.0,13.0,100,0.00,,,0.00,0.000000,,2013-05-06 04:42:00,
2013-05-05 22:52:00,35.0,35.0,-100.00,ENE,69,2.0,12.0,100,0.00,,,0.00,0.000000,,2013-05-06 04:52:00,
2013-05-05 23:12:00,35.0,35.0,-100.00,ENE,69,2.0,12.0,100,0.00,,,0.00,0.000000,,2013-05-06 05:12:00,
2013-05-05 23:22:00,35.0,35.0,-100.00,ENE,69,2.0,12.0,100,0.00,,,0.00,0.000000,,2013-05-06 05:22:00,
2013-05-05 23:32:00,35.0,35.0,-100.00,ENE,69,2.0,12.0,100,0.00,,,0.00,0.000000,,2013-05-06 05:32:00,
2013-05-05 23:42:00,35.0,35.0,-100.00,ENE,69,2.0,12.0,100,0.00,,,0.00,0.000000,,2013-05-06 05:42:00,